Time;durP1;ratioP1;P1;durP2;ratioP2;P2;SDS_P1;SDS_P2;PMS_P1;PMS_P2;Temp;Humidity;BMP_temperature;BMP_pressure;BME280_temperature;BME280_humidity;BME280_pressure;Samples;Min_cycle;Max_cycle;Signal;HPM_P1;HPM_P2
2021/03/11 00:00:17;;;;;;;;;;;;;;;;;;5073878;28;20284;-57
2021/03/11 00:02:43;;;;;;;;;;;;;;;;;;5073847;28;19919;-57
2021/03/11 00:05:09;;;;;;;;;;;;;;;;;;5073860;28;19983;-57
2021/03/11 00:07:35;;;;;;;;;;;;;;;;;;5073925;28;20337;-57
2021/03/11 00:10:01;;;;;;;;;;;;;;;;;;5073635;28;19905;-57
2021/03/11 00:12:27;;;;;;;;;;;;;;;;;;5073448;28;20426;-57
2021/03/11 00:14:53;;;;;;;;;;;;;;;;;;5073537;28;19915;-57
2021/03/11 00:17:19;;;;;;;;;;;;;;;;;;5073764;28;19919;-58
2021/03/11 00:19:45;;;;;;;;;;;;;;;;;;5073392;28;20399;-58
2021/03/11 00:22:11;;;;;;;;;;;;;;;;;;5073526;28;19909;-58
2021/03/11 00:24:37;;;;;;;;;;;;;;;;;;5073719;28;19960;-59
2021/03/11 00:27:03;;;;;;;;;;;;;;;;;;5073507;28;20371;-58
2021/03/11 00:29:29;;;;;;;;;;;;;;;;;;5073375;28;19977;-58
2021/03/11 00:31:55;;;;;;;;;;;;;;;;;;5073361;28;19904;-58
2021/03/11 00:34:21;;;;;;;;;;;;;;;;;;5073701;28;19904;-57
2021/03/11 00:36:47;;;;;;;;;;;;;;;;;;5073604;28;20264;-57
2021/03/11 00:39:12;;;;;;;;;;;;;;;;;;5072124;28;20254;-57
2021/03/11 00:41:38;;;;;;;;;;;;;;;;;;5073259;28;19958;-57
2021/03/11 00:44:04;;;;;;;;;;;;;;;;;;5073328;28;19943;-57
2021/03/11 00:46:30;;;;;;;;;;;;;;;;;;5073617;28;20406;-57
2021/03/11 00:48:56;;;;;;;;;;;;;;;;;;5073185;28;19904;-57
2021/03/11 00:51:22;;;;;;;;;;;;;;;;;;5073214;28;19908;-57
2021/03/11 00:53:48;;;;;;;;;;;;;;;;;;5073570;28;19983;-57
2021/03/11 00:56:14;;;;;;;;;;;;;;;;;;5073209;28;19908;-57
2021/03/11 00:58:40;;;;;;;;;;;;;;;;;;5074865;28;19962;-57
2021/03/11 01:01:06;;;;;;;;;;;;;;;;;;5076785;28;19949;-57
2021/03/11 01:03:32;;;;;;;;;;;;;;;;;;5076831;28;19912;-57
2021/03/11 01:05:58;;;;;;;;;;;;;;;;;;5076693;28;19905;-58
2021/03/11 01:08:24;;;;;;;;;;;;;;;;;;5076648;28;19937;-57
2021/03/11 01:10:50;;;;;;;;;;;;;;;;;;5076665;28;19905;-57
2021/03/11 01:13:16;;;;;;;;;;;;;;;;;;5076397;28;19962;-57
2021/03/11 01:15:42;;;;;;;;;;;;;;;;;;5076810;28;19908;-56
2021/03/11 01:18:08;;;;;;;;;;;;;;;;;;5077074;28;20369;-57
2021/03/11 01:20:34;;;;;;;;;;;;;;;;;;5076454;28;19967;-57
2021/03/11 01:23:00;;;;;;;;;;;;;;;;;;5076640;28;19955;-57
2021/03/11 01:25:26;;;;;;;;;;;;;;;;;;5076564;28;19904;-57
2021/03/11 01:27:52;;;;;;;;;;;;;;;;;;5076379;28;19904;-57
2021/03/11 01:30:18;;;;;;;;;;;;;;;;;;5076377;28;19958;-57
2021/03/11 01:32:43;;;;;;;;;;;;;;;;;;5076278;28;19912;-57
2021/03/11 01:35:09;;;;;;;;;;;;;;;;;;5076604;28;19958;-57
2021/03/11 01:37:35;;;;;;;;;;;;;;;;;;5076637;28;19912;-57
2021/03/11 01:40:01;;;;;;;;;;;;;;;;;;5076264;28;20298;-57
2021/03/11 01:42:27;;;;;;;;;;;;;;;;;;5076337;28;19931;-57
2021/03/11 01:44:53;;;;;;;;;;;;;;;;;;5076311;28;20349;-57
2021/03/11 01:47:19;;;;;;;;;;;;;;;;;;5076041;28;19963;-57
2021/03/11 01:49:45;;;;;;;;;;;;;;;;;;5075969;28;19918;-57
2021/03/11 01:52:11;;;;;;;;;;;;;;;;;;5075920;28;19904;-57
2021/03/11 01:54:37;;;;;;;;;;;;;;;;;;5075883;28;19904;-58
2021/03/11 01:57:03;;;;;;;;;;;;;;;;;;5075778;28;19958;-58
2021/03/11 01:59:29;;;;;;;;;;;;;;;;;;5075763;28;19910;-58
2021/03/11 02:01:55;;;;;;;;;;;;;;;;;;5075576;28;20044;-58
2021/03/11 02:04:21;;;;;;;;;;;;;;;;;;5076013;28;19908;-58
2021/03/11 02:06:47;;;;;;;;;;;;;;;;;;5076010;28;19904;-58
2021/03/11 02:09:13;;;;;;;;;;;;;;;;;;5075310;28;19904;-58
2021/03/11 02:11:39;;;;;;;;;;;;;;;;;;5075292;28;19920;-59
2021/03/11 02:14:05;;;;;;;;;;;;;;;;;;5075731;28;19915;-58
2021/03/11 02:16:31;;;;;;;;;;;;;;;;;;5075763;28;19954;-58
2021/03/11 02:18:57;;;;;;;;;;;;;;;;;;5075439;28;19942;-58
2021/03/11 02:21:23;;;;;;;;;;;;;;;;;;5075581;28;19951;-58
2021/03/11 02:23:49;;;;;;;;;;;;;;;;;;5075277;28;20425;-54
2021/03/11 02:26:15;;;;;;;;;;;;;;;;;;5075274;28;20364;-52
2021/03/11 02:28:42;;;;;;;;;;;;;;;;;;5075263;28;20321;-54
2021/03/11 02:31:08;;;;;;;;;;;;;;;;;;5075404;28;19923;-58
2021/03/11 02:33:34;;;;;;;;;;;;;;;;;;5075293;28;19908;-59
2021/03/11 02:36:01;;;;;;;;;;;;;;;;;;5075052;28;19912;-58
2021/03/11 02:38:27;;;;;;;;;;;;;;;;;;5075306;28;19904;-59
2021/03/11 02:40:53;;;;;;;;;;;;;;;;;;5075019;28;19962;-59
2021/03/11 02:43:19;;;;;;;;;;;;;;;;;;5074868;28;19920;-58
2021/03/11 02:45:45;;;;;;;;;;;;;;;;;;5075176;28;19904;-58
2021/03/11 02:48:11;;;;;;;;;;;;;;;;;;5074983;28;20407;-58
2021/03/11 02:50:37;;;;;;;;;;;;;;;;;;5074956;28;20010;-58
2021/03/11 02:53:03;;;;;;;;;;;;;;;;;;5074647;28;19947;-58
2021/03/11 02:55:29;;;;;;;;;;;;;;;;;;5074637;28;19908;-59
2021/03/11 02:57:55;;;;;;;;;;;;;;;;;;5074480;28;19908;-58
2021/03/11 03:00:21;;;;;;;;;;;;;;;;;;5074593;28;19904;-58
2021/03/11 03:02:47;;;;;;;;;;;;;;;;;;5074372;28;19997;-58
2021/03/11 03:05:13;;;;;;;;;;;;;;;;;;5074540;28;19904;-58
2021/03/11 03:07:42;;;;;;;;;;;;;;;;;;5074320;28;20260;-58
2021/03/11 03:10:08;;;;;;;;;;;;;;;;;;5074407;28;20300;-58
2021/03/11 03:12:34;;;;;;;;;;;;;;;;;;5074146;28;19926;-58
2021/03/11 03:15:00;;;;;;;;;;;;;;;;;;5074300;28;20387;-58
2021/03/11 03:17:26;;;;;;;;;;;;;;;;;;5074166;28;19943;-58
2021/03/11 03:19:52;;;;;;;;;;;;;;;;;;5074283;28;19904;-52
2021/03/11 03:22:17;;;;;;;;;;;;;;;;;;5073970;28;20344;-56
2021/03/11 03:24:43;;;;;;;;;;;;;;;;;;5074199;28;19998;-59
2021/03/11 03:27:11;;;;;;;;;;;;;;;;;;5074119;28;19900;-58
2021/03/11 03:29:37;;;;;;;;;;;;;;;;;;5074135;28;19904;-59
2021/03/11 03:32:03;;;;;;;;;;;;;;;;;;5073990;28;20316;-58
2021/03/11 03:34:29;;;;;;;;;;;;;;;;;;5074106;28;19911;-58
2021/03/11 03:36:54;;;;;;;;;;;;;;;;;;5074064;28;19946;-58
2021/03/11 03:39:20;;;;;;;;;;;;;;;;;;5073975;28;19901;-58
2021/03/11 03:41:46;;;;;;;;;;;;;;;;;;5073829;28;19947;-58
2021/03/11 03:44:12;;;;;;;;;;;;;;;;;;5073900;28;19915;-58
2021/03/11 03:46:38;;;;;;;;;;;;;;;;;;5073918;28;19904;-59
2021/03/11 03:49:04;;;;;;;;;;;;;;;;;;5073838;28;19904;-58
2021/03/11 03:51:30;;;;;;;;;;;;;;;;;;5073750;28;19911;-58
2021/03/11 03:53:56;;;;;;;;;;;;;;;;;;5073983;28;19991;-58
2021/03/11 03:56:22;;;;;;;;;;;;;;;;;;5073728;28;20353;-58
2021/03/11 03:58:48;;;;;;;;;;;;;;;;;;5073596;28;19904;-58
2021/03/11 04:01:14;;;;;;;;;;;;;;;;;;5073932;28;19908;-58
2021/03/11 04:03:40;;;;;;;;;;;;;;;;;;5073520;28;20262;-57
2021/03/11 04:06:06;;;;;;;;;;;;;;;;;;5073950;28;19947;-58
2021/03/11 04:08:32;;;;;;;;;;;;;;;;;;5073435;28;20349;-58
2021/03/11 04:10:58;;;;;;;;;;;;;;;;;;5073514;28;19905;-58
2021/03/11 04:13:24;;;;;;;;;;;;;;;;;;5073684;28;19954;-56
2021/03/11 04:15:50;;;;;;;;;;;;;;;;;;5073564;28;20315;-58
2021/03/11 04:18:16;;;;;;;;;;;;;;;;;;5073749;28;19904;-57
2021/03/11 04:20:42;;;;;;;;;;;;;;;;;;5073902;28;19905;-58
2021/03/11 04:23:08;;;;;;;;;;;;;;;;;;5073398;28;19934;-58
2021/03/11 04:25:34;;;;;;;;;;;;;;;;;;5073421;28;19909;-58
2021/03/11 04:28:00;;;;;;;;;;;;;;;;;;5073710;28;20004;-58
2021/03/11 04:30:26;;;;;;;;;;;;;;;;;;5073358;28;19904;-58
2021/03/11 04:32:52;;;;;;;;;;;;;;;;;;5073855;28;19936;-58
2021/03/11 04:35:17;;;;;;;;;;;;;;;;;;5077481;28;19958;-58
2021/03/11 04:37:43;;;;;;;;;;;;;;;;;;5077390;28;20420;-58
2021/03/11 04:40:10;;;;;;;;;;;;;;;;;;5077368;28;19927;-58
2021/03/11 04:42:36;;;;;;;;;;;;;;;;;;5077136;28;19912;-58
2021/03/11 04:45:01;;;;;;;;;;;;;;;;;;5077486;28;19911;-58
2021/03/11 04:47:27;;;;;;;;;;;;;;;;;;5077131;28;20269;-58
2021/03/11 04:49:53;;;;;;;;;;;;;;;;;;5076881;28;19904;-58
2021/03/11 04:52:19;;;;;;;;;;;;;;;;;;5077021;28;20003;-58
2021/03/11 04:54:45;;;;;;;;;;;;;;;;;;5076924;28;19947;-58
2021/03/11 04:57:11;;;;;;;;;;;;;;;;;;5076899;28;19912;-58
2021/03/11 04:59:37;;;;;;;;;;;;;;;;;;5076885;28;20007;-59
2021/03/11 05:02:03;;;;;;;;;;;;;;;;;;5076985;28;20280;-59
2021/03/11 05:04:29;;;;;;;;;;;;;;;;;;5075546;28;19954;-58
2021/03/11 05:06:55;;;;;;;;;;;;;;;;;;5076819;28;19915;-58
2021/03/11 05:09:21;;;;;;;;;;;;;;;;;;5076672;28;19920;-57
2021/03/11 05:11:47;;;;;;;;;;;;;;;;;;5076780;28;19962;-58
2021/03/11 05:14:13;;;;;;;;;;;;;;;;;;5076979;28;19909;-58
2021/03/11 05:16:39;;;;;;;;;;;;;;;;;;5076570;28;20285;-58
2021/03/11 05:19:05;;;;;;;;;;;;;;;;;;5076558;28;19904;-57
2021/03/11 05:21:31;;;;;;;;;;;;;;;;;;5076461;28;19904;-58
2021/03/11 05:23:57;;;;;;;;;;;;;;;;;;5076441;28;19919;-58
2021/03/11 05:26:23;;;;;;;;;;;;;;;;;;5076516;28;19994;-58
2021/03/11 05:28:49;;;;;;;;;;;;;;;;;;5076489;28;20261;-58
2021/03/11 05:31:15;;;;;;;;;;;;;;;;;;5076446;28;19904;-58
2021/03/11 05:33:41;;;;;;;;;;;;;;;;;;5076288;28;19911;-58
2021/03/11 05:36:07;;;;;;;;;;;;;;;;;;5076172;28;19904;-58
2021/03/11 05:38:33;;;;;;;;;;;;;;;;;;5076186;28;19912;-58
2021/03/11 05:40:59;;;;;;;;;;;;;;;;;;5076148;28;19908;-54
2021/03/11 05:43:25;;;;;;;;;;;;;;;;;;5076016;28;19958;-59
2021/03/11 05:45:51;;;;;;;;;;;;;;;;;;5074768;28;19913;-59
2021/03/11 05:48:17;;;;;;;;;;;;;;;;;;5076070;28;19904;-58
2021/03/11 05:50:43;;;;;;;;;;;;;;;;;;5076103;28;19991;-59
2021/03/11 05:53:11;;;;;;;;;;;;;;;;;;5076027;28;19911;-51
2021/03/11 05:55:37;;;;;;;;;;;;;;;;;;5075929;28;19905;-58
2021/03/11 05:58:03;;;;;;;;;;;;;;;;;;5075804;28;20419;-58
2021/03/11 06:00:29;;;;;;;;;;;;;;;;;;5075773;28;19912;-57
2021/03/11 06:02:55;;;;;;;;;;;;;;;;;;5074484;28;19936;-58
2021/03/11 06:05:21;;;;;;;;;;;;;;;;;;5075935;28;19912;-58
2021/03/11 06:07:47;;;;;;;;;;;;;;;;;;5075632;28;19904;-58
2021/03/11 06:10:13;;;;;;;;;;;;;;;;;;5074331;28;19905;-58
2021/03/11 06:12:39;;;;;;;;;;;;;;;;;;5075418;28;20365;-58
2021/03/11 06:15:05;;;;;;;;;;;;;;;;;;5075485;28;19911;-58
2021/03/11 06:17:31;;;;;;;;;;;;;;;;;;5075455;28;19909;-58
2021/03/11 06:19:57;;;;;;;;;;;;;;;;;;5075316;28;19946;-58
2021/03/11 06:22:23;;;;;;;;;;;;;;;;;;5069247;28;19959;-57
2021/03/11 06:24:49;;;;;;;;;;;;;;;;;;5071641;28;19912;-58
2021/03/11 06:27:15;;;;;;;;;;;;;;;;;;5072963;28;19908;-58
2021/03/11 06:29:41;;;;;;;;;;;;;;;;;;5075403;28;20006;-58
2021/03/11 06:32:07;;;;;;;;;;;;;;;;;;5075038;28;20391;-54
2021/03/11 06:34:33;;;;;;;;;;;;;;;;;;5075500;28;20383;-58
2021/03/11 06:36:59;;;;;;;;;;;;;;;;;;5075239;28;19904;-58
2021/03/11 06:39:25;;;;;;;;;;;;;;;;;;5074992;28;20314;-58
2021/03/11 06:41:51;;;;;;;;;;;;;;;;;;5074762;28;19904;-57
2021/03/11 06:44:17;;;;;;;;;;;;;;;;;;5074919;28;19915;-58
2021/03/11 06:46:43;;;;;;;;;;;;;;;;;;5073481;28;19953;-58
2021/03/11 06:49:09;;;;;;;;;;;;;;;;;;5074774;28;19916;-58
2021/03/11 06:51:35;;;;;;;;;;;;;;;;;;5074533;28;19905;-58
2021/03/11 06:54:01;;;;;;;;;;;;;;;;;;5074820;28;19905;-58
2021/03/11 06:56:27;;;;;;;;;;;;;;;;;;5074264;28;19904;-57
2021/03/11 06:58:53;;;;;;;;;;;;;;;;;;5074585;28;19912;-58
2021/03/11 07:01:19;;;;;;;;;;;;;;;;;;5074903;28;19904;-58
2021/03/11 07:03:46;;;;;;;;;;;;;;;;;;5074386;28;20373;-58
2021/03/11 07:06:12;;;;;;;;;;;;;;;;;;5074444;28;19905;-58
2021/03/11 07:08:38;;;;;;;;;;;;;;;;;;5074330;28;19904;-58
2021/03/11 07:11:04;;;;;;;;;;;;;;;;;;5074263;28;19908;-58
2021/03/11 07:13:30;;;;;;;;;;;;;;;;;;5074495;28;19904;-59
2021/03/11 07:15:56;;;;;;;;;;;;;;;;;;5074338;28;19904;-58
2021/03/11 07:18:23;;;;;;;;;;;;;;;;;;5073724;28;20310;-51
2021/03/11 07:20:49;;;;;;;;;;;;;;;;;;5073962;28;20333;-58
2021/03/11 07:23:15;;;;;;;;;;;;;;;;;;5074288;28;19913;-58
2021/03/11 07:25:42;;;;;;;;;;;;;;;;;;5072943;28;20312;-58
2021/03/11 07:28:08;;;;;;;;;;;;;;;;;;5074396;28;19950;-59
2021/03/11 07:30:34;;;;;;;;;;;;;;;;;;5074092;28;19904;-58
2021/03/11 07:33:00;;;;;;;;;;;;;;;;;;5074209;28;19948;-59
2021/03/11 07:35:26;;;;;;;;;;;;;;;;;;5074305;28;19912;-57
2021/03/11 07:37:52;;;;;;;;;;;;;;;;;;5074023;28;19904;-58
2021/03/11 07:40:18;;;;;;;;;;;;;;;;;;5074017;28;19950;-58
2021/03/11 07:42:44;;;;;;;;;;;;;;;;;;5073778;28;19908;-55
2021/03/11 07:45:10;;;;;;;;;;;;;;;;;;5072578;28;20254;-58
2021/03/11 07:47:36;;;;;;;;;;;;;;;;;;5074045;28;19904;-58
2021/03/11 07:50:02;;;;;;;;;;;;;;;;;;5073648;28;20250;-58
2021/03/11 07:52:28;;;;;;;;;;;;;;;;;;5073716;28;19982;-58
2021/03/11 07:54:54;;;;;;;;;;;;;;;;;;5073551;28;19909;-58
2021/03/11 07:57:20;;;;;;;;;;;;;;;;;;5073949;28;19910;-59
2021/03/11 07:59:46;;;;;;;;;;;;;;;;;;5073708;28;19939;-59
2021/03/11 08:02:12;;;;;;;;;;;;;;;;;;5073530;28;19927;-59
2021/03/11 08:04:38;;;;;;;;;;;;;;;;;;5073880;28;19957;-58
2021/03/11 08:07:04;;;;;;;;;;;;;;;;;;5073500;28;19926;-58
2021/03/11 08:09:30;;;;;;;;;;;;;;;;;;5073047;28;19944;-58
2021/03/11 08:11:55;;;;;;;;;;;;;;;;;;5073712;28;19920;-59
2021/03/11 08:14:22;;;;;;;;;;;;;;;;;;5073745;28;20007;-58
2021/03/11 08:16:48;;;;;;;;;;;;;;;;;;5073522;28;20254;-58
2021/03/11 08:19:13;;;;;;;;;;;;;;;;;;5073518;28;20378;-58
2021/03/11 08:21:39;;;;;;;;;;;;;;;;;;5073620;28;20034;-59
2021/03/11 08:24:05;;;;;;;;;;;;;;;;;;5073362;28;19920;-58
2021/03/11 08:26:31;;;;;;;;;;;;;;;;;;5073410;28;19936;-58
2021/03/11 08:28:57;;;;;;;;;;;;;;;;;;5073399;28;19905;-58
2021/03/11 08:31:23;;;;;;;;;;;;;;;;;;5073681;28;19995;-58
2021/03/11 08:33:49;;;;;;;;;;;;;;;;;;5073554;28;19905;-58
2021/03/11 08:36:15;;;;;;;;;;;;;;;;;;5073612;28;19923;-58
2021/03/11 08:38:41;;;;;;;;;;;;;;;;;;5073245;28;19905;-59
2021/03/11 08:41:07;;;;;;;;;;;;;;;;;;5073343;28;20307;-59
2021/03/11 08:43:33;;;;;;;;;;;;;;;;;;5071506;28;19931;-58
2021/03/11 08:45:59;;;;;;;;;;;;;;;;;;5073219;28;19905;-58
2021/03/11 08:48:25;;;;;;;;;;;;;;;;;;5072961;28;19908;-58
2021/03/11 08:50:51;;;;;;;;;;;;;;;;;;5070339;28;20254;-58
2021/03/11 08:53:17;;;;;;;;;;;;;;;;;;5073371;28;19904;-58
2021/03/11 08:55:43;;;;;;;;;;;;;;;;;;5073183;28;20357;-55
2021/03/11 08:58:09;;;;;;;;;;;;;;;;;;5073071;28;19904;-58
2021/03/11 09:00:35;;;;;;;;;;;;;;;;;;5073056;28;19911;-58
2021/03/11 09:03:01;;;;;;;;;;;;;;;;;;5073231;28;19999;-58
2021/03/11 09:05:27;;;;;;;;;;;;;;;;;;5073344;28;19905;-58
2021/03/11 09:07:53;;;;;;;;;;;;;;;;;;5073242;28;20268;-58
2021/03/11 09:10:19;;;;;;;;;;;;;;;;;;5072670;28;19941;-58
2021/03/11 09:12:45;;;;;;;;;;;;;;;;;;5072658;28;19924;-48
2021/03/11 09:15:11;;;;;;;;;;;;;;;;;;5072907;28;19911;-57
2021/03/11 09:17:38;;;;;;;;;;;;;;;;;;5073248;28;19904;-58
2021/03/11 09:20:04;;;;;;;;;;;;;;;;;;5075330;28;19947;-58
2021/03/11 09:22:30;;;;;;;;;;;;;;;;;;5076488;28;19966;-58
2021/03/11 09:24:56;;;;;;;;;;;;;;;;;;5076302;28;19905;-52
2021/03/11 09:27:22;;;;;;;;;;;;;;;;;;5076631;28;19957;-57
2021/03/11 09:29:48;;;;;;;;;;;;;;;;;;5076353;28;20323;-58
2021/03/11 09:32:14;;;;;;;;;;;;;;;;;;5076037;28;19905;-53
2021/03/11 09:34:40;;;;;;;;;;;;;;;;;;5076210;28;20069;-58
2021/03/11 09:37:06;;;;;;;;;;;;;;;;;;5076238;28;19949;-58
2021/03/11 09:39:32;;;;;;;;;;;;;;;;;;5076298;28;19908;-55
2021/03/11 09:41:57;;;;;;;;;;;;;;;;;;5076404;28;20430;-58
2021/03/11 09:44:23;;;;;;;;;;;;;;;;;;5076035;28;20288;-58
2021/03/11 09:46:49;;;;;;;;;;;;;;;;;;5075321;28;19955;-57
2021/03/11 09:49:15;;;;;;;;;;;;;;;;;;5073870;28;19915;-52
2021/03/11 09:51:41;;;;;;;;;;;;;;;;;;5075994;28;20353;-58
2021/03/11 09:54:07;;;;;;;;;;;;;;;;;;5075747;28;19904;-58
2021/03/11 09:56:33;;;;;;;;;;;;;;;;;;5075829;28;19904;-58
2021/03/11 09:58:59;;;;;;;;;;;;;;;;;;5076120;28;19949;-58
2021/03/11 10:01:25;;;;;;;;;;;;;;;;;;5075605;28;19904;-58
2021/03/11 10:03:51;;;;;;;;;;;;;;;;;;5075684;28;19958;-58
2021/03/11 10:06:17;;;;;;;;;;;;;;;;;;5075220;28;19904;-56
2021/03/11 10:08:44;;;;;;;;;;;;;;;;;;5075376;28;19995;-56
2021/03/11 10:11:10;;;;;;;;;;;;;;;;;;5075557;28;20319;-58
2021/03/11 10:13:36;;;;;;;;;;;;;;;;;;5075469;28;19904;-58
2021/03/11 10:16:02;;;;;;;;;;;;;;;;;;5075616;28;20013;-58
2021/03/11 10:18:28;;;;;;;;;;;;;;;;;;5075040;28;19911;-58
2021/03/11 10:20:54;;;;;;;;;;;;;;;;;;5075273;28;19955;-58
2021/03/11 10:23:21;;;;;;;;;;;;;;;;;;5075077;28;19922;-52
2021/03/11 10:25:47;;;;;;;;;;;;;;;;;;5074972;28;19905;-56
2021/03/11 10:28:13;;;;;;;;;;;;;;;;;;5074683;28;19954;-49
2021/03/11 10:30:40;;;;;;;;;;;;;;;;;;5073970;28;20656;-54
2021/03/11 10:33:06;;;;;;;;;;;;;;;;;;5073458;28;20280;-51
2021/03/11 10:35:32;;;;;;;;;;;;;;;;;;5074591;28;20003;-57
2021/03/11 10:37:58;;;;;;;;;;;;;;;;;;5074907;28;19926;-58
2021/03/11 10:40:24;;;;;;;;;;;;;;;;;;5074986;28;19904;-57
2021/03/11 10:42:50;;;;;;;;;;;;;;;;;;5074733;28;20019;-58
2021/03/11 10:45:16;;;;;;;;;;;;;;;;;;5074303;28;19958;-53
2021/03/11 10:47:42;;;;;;;;;;;;;;;;;;5074412;28;19923;-58
2021/03/11 10:50:09;;;;;;;;;;;;;;;;;;5054677;28;19952;-58
2021/03/11 10:52:35;;;;;;;;;;;;;;;;;;5068929;28;19915;-58
2021/03/11 10:55:01;;;;;;;;;;;;;;;;;;5074694;28;19934;-58
2021/03/11 10:57:27;;;;;;;;;;;;;;;;;;5074738;28;19904;-58
2021/03/11 10:59:53;;;;;;;;;;;;;;;;;;5074165;28;19954;-57
2021/03/11 11:02:19;;;;;;;;;;;;;;;;;;5073931;28;19974;-58
2021/03/11 11:04:45;;;;;;;;;;;;;;;;;;5074621;28;19995;-56
2021/03/11 11:07:11;;;;;;;;;;;;;;;;;;5072914;28;20281;-58
2021/03/11 11:09:37;;;;;;;;;;;;;;;;;;5073046;28;19915;-57
2021/03/11 11:12:03;;;;;;;;;;;;;;;;;;5074060;28;19921;-58
2021/03/11 11:14:28;;;;;;;;;;;;;;;;;;5074318;28;19912;-58
2021/03/11 11:16:54;;;;;;;;;;;;;;;;;;5074429;28;19962;-58
2021/03/11 11:19:20;;;;;;;;;;;;;;;;;;5074377;28;19904;-57
2021/03/11 11:21:46;;;;;;;;;;;;;;;;;;5074097;28;19908;-58
2021/03/11 11:24:12;;;;;;;;;;;;;;;;;;5073184;28;19922;-54
2021/03/11 11:26:38;;;;;;;;;;;;;;;;;;5073922;28;19950;-57
2021/03/11 11:29:05;;;;;;;;;;;;;;;;;;5074303;28;19922;-58
2021/03/11 11:31:31;;;;;;;;;;;;;;;;;;5073303;28;19942;-54
2021/03/11 11:33:57;;;;;;;;;;;;;;;;;;5073314;28;20265;-57
2021/03/11 11:36:23;;;;;;;;;;;;;;;;;;5073364;28;19915;-57
2021/03/11 11:38:49;;;;;;;;;;;;;;;;;;5073244;28;20007;-48
2021/03/11 11:41:15;;;;;;;;;;;;;;;;;;5074029;28;19904;-50
2021/03/11 11:43:41;;;;;;;;;;;;;;;;;;5071884;28;19916;-54
2021/03/11 11:46:07;;;;;;;;;;;;;;;;;;5072986;28;19908;-57
2021/03/11 11:48:33;;;;;;;;;;;;;;;;;;5074221;28;20348;-57
2021/03/11 11:50:59;;;;;;;;;;;;;;;;;;5073277;28;19931;-58
2021/03/11 11:53:25;;;;;;;;;;;;;;;;;;5073205;28;19995;-57
2021/03/11 11:55:51;;;;;;;;;;;;;;;;;;5073597;28;19959;-57
2021/03/11 11:58:17;;;;;;;;;;;;;;;;;;5073643;28;20272;-58
2021/03/11 12:00:43;;;;;;;;;;;;;;;;;;5072372;28;19911;-58
2021/03/11 12:03:09;;;;;;;;;;;;;;;;;;5073469;28;19912;-58
2021/03/11 12:05:35;;;;;;;;;;;;;;;;;;5073946;28;19918;-56
2021/03/11 12:08:01;;;;;;;;;;;;;;;;;;5073021;28;19909;-57
2021/03/11 12:10:27;;;;;;;;;;;;;;;;;;5073518;28;19987;-58
2021/03/11 12:12:53;;;;;;;;;;;;;;;;;;5073404;28;19916;-58
2021/03/11 12:15:19;;;;;;;;;;;;;;;;;;5073370;28;19954;-57
2021/03/11 12:17:49;;;;;;;;;;;;;;;;;;5073194;28;19904;-51
2021/03/11 12:20:15;;;;;;;;;;;;;;;;;;5073391;28;19999;-51
2021/03/11 12:22:40;;;;;;;;;;;;;;;;;;5073351;28;20011;-51
2021/03/11 12:25:06;;;;;;;;;;;;;;;;;;5073669;28;19911;-55
2021/03/11 12:27:32;;;;;;;;;;;;;;;;;;5073412;28;19950;-50
2021/03/11 12:30:00;;;;;;;;;;;;;;;;;;5072938;28;19916;-54
2021/03/11 12:32:26;;;;;;;;;;;;;;;;;;5073133;28;19944;-53
2021/03/11 12:34:52;;;;;;;;;;;;;;;;;;5072273;28;19946;-56
2021/03/11 12:37:18;;;;;;;;;;;;;;;;;;5071096;28;19908;-57
2021/03/11 12:39:44;;;;;;;;;;;;;;;;;;5072963;28;20402;-52
2021/03/11 12:42:10;;;;;;;;;;;;;;;;;;5072941;28;19905;-55
2021/03/11 12:44:36;;;;;;;;;;;;;;;;;;5072640;28;19935;-56
2021/03/11 12:47:02;;;;;;;;;;;;;;;;;;5072769;28;19958;-55
2021/03/11 12:49:28;;;;;;;;;;;;;;;;;;5072678;28;20245;-49
2021/03/11 12:51:54;;;;;;;;;;;;;;;;;;5072825;28;19911;-52
2021/03/11 12:54:20;;;;;;;;;;;;;;;;;;5072386;28;19908;-57
2021/03/11 12:56:46;;;;;;;;;;;;;;;;;;5075102;28;20299;-54
2021/03/11 12:59:12;;;;;;;;;;;;;;;;;;5076287;28;19919;-55
2021/03/11 13:01:38;;;;;;;;;;;;;;;;;;5076489;28;19913;-55
2021/03/11 13:04:04;;;;;;;;;;;;;;;;;;5076423;28;19927;-52
2021/03/11 13:06:30;;;;;;;;;;;;;;;;;;5076722;28;19962;-55
2021/03/11 13:08:56;;;;;;;;;;;;;;;;;;5075991;28;20365;-51
2021/03/11 13:11:24;;;;;;;;;;;;;;;;;;5075950;28;20380;-50
2021/03/11 13:13:50;;;;;;;;;;;;;;;;;;5076217;28;19904;-55
2021/03/11 13:16:16;;;;;;;;;;;;;;;;;;5076089;28;19950;-50
2021/03/11 13:18:42;;;;;;;;;;;;;;;;;;5076095;28;20002;-51
2021/03/11 13:21:08;;;;;;;;;;;;;;;;;;5076188;28;20422;-57
2021/03/11 13:23:34;;;;;;;;;;;;;;;;;;5075845;28;19958;-49
2021/03/11 13:26:00;;;;;;;;;;;;;;;;;;5076145;28;20396;-53
2021/03/11 13:28:26;;;;;;;;;;;;;;;;;;5075720;28;19962;-58
2021/03/11 13:30:52;;;;;;;;;;;;;;;;;;5075878;28;19912;-54
2021/03/11 13:33:18;;;;;;;;;;;;;;;;;;5072343;28;19908;-53
2021/03/11 13:35:44;;;;;;;;;;;;;;;;;;5076287;28;20261;-58
2021/03/11 13:38:10;;;;;;;;;;;;;;;;;;5074699;28;19908;-54
2021/03/11 13:40:36;;;;;;;;;;;;;;;;;;5075842;28;20353;-58
2021/03/11 13:43:02;;;;;;;;;;;;;;;;;;5075494;28;19962;-56
2021/03/11 13:45:28;;;;;;;;;;;;;;;;;;5075911;28;19908;-57
2021/03/11 13:47:54;;;;;;;;;;;;;;;;;;5075661;28;20303;-57
2021/03/11 13:50:20;;;;;;;;;;;;;;;;;;5075412;28;19904;-54
2021/03/11 13:52:46;;;;;;;;;;;;;;;;;;5075494;28;19930;-53
2021/03/11 13:55:12;;;;;;;;;;;;;;;;;;5075891;28;19904;-53
2021/03/11 13:57:38;;;;;;;;;;;;;;;;;;5075869;28;19958;-57
2021/03/11 14:00:04;;;;;;;;;;;;;;;;;;5075871;28;20335;-56
2021/03/11 14:02:30;;;;;;;;;;;;;;;;;;5075357;28;19912;-49
2021/03/11 14:04:56;;;;;;;;;;;;;;;;;;5075691;28;19958;-50
2021/03/11 14:07:22;;;;;;;;;;;;;;;;;;5072635;28;20273;-48
2021/03/11 14:09:48;;;;;;;;;;;;;;;;;;5074850;28;20008;-47
2021/03/11 14:12:14;;;;;;;;;;;;;;;;;;5073079;28;20031;-48
2021/03/11 14:14:40;;;;;;;;;;;;;;;;;;5074747;28;20281;-55
2021/03/11 14:17:06;;;;;;;;;;;;;;;;;;5074801;28;19915;-58
2021/03/11 14:19:32;;;;;;;;;;;;;;;;;;5075354;28;19904;-58
2021/03/11 14:21:58;;;;;;;;;;;;;;;;;;5075538;28;20319;-57
2021/03/11 14:24:24;;;;;;;;;;;;;;;;;;5077405;22;19921;-61
2021/03/11 14:26:50;;;;;;;;;;;;;;;;;;5059499;28;20031;-63
2021/03/11 14:29:16;;;;;;;;;;;;;;;;;;5061697;28;19996;-62
2021/03/11 14:31:42;;;;;;;;;;;;;;;;;;5061657;28;20330;-63
2021/03/11 14:34:08;;;;;;;;;;;;;;;;;;5047373;28;19981;-64
2021/03/11 14:36:34;;;;;;;;;;;;;;;;;;5033520;28;19999;-64
2021/03/11 14:39:00;;;;;;;;;;;;;;;;;;5035653;28;20441;-62
2021/03/11 14:41:26;;;;;;;;;;;;;;;;;;5044274;28;19920;-61
2021/03/11 14:43:52;;;;;;;;;;;;;;;;;;5053550;28;19935;-63
2021/03/11 14:46:18;;;;;;;;;;;;;;;;;;5044919;28;20269;-63
2021/03/11 14:48:44;;;;;;;;;;;;;;;;;;5033171;28;19999;-63
2021/03/11 14:51:10;;;;;;;;;;;;;;;;;;5032933;28;20003;-62
2021/03/11 14:53:36;;;;;;;;;;;;;;;;;;5033179;28;20321;-62
2021/03/11 14:56:02;;;;;;;;;;;;;;;;;;5041163;28;20421;-63
2021/03/11 14:58:28;;;;;;;;;;;;;;;;;;5052591;28;20014;-63
2021/03/11 15:00:54;;;;;;;;;;;;;;;;;;5051539;28;20362;-63
2021/03/11 15:03:20;;;;;;;;;;;;;;;;;;5052680;28;20003;-61
2021/03/11 15:05:46;;;;;;;;;;;;;;;;;;5052830;28;19916;-61
2021/03/11 15:08:12;;;;;;;;;;;;;;;;;;5052002;28;20046;-63
2021/03/11 15:10:38;;;;;;;;;;;;;;;;;;5052887;28;19909;-63
2021/03/11 15:13:04;;;;;;;;;;;;;;;;;;5052756;28;20372;-62
2021/03/11 15:15:30;;;;;;;;;;;;;;;;;;5052703;28;20003;-63
2021/03/11 15:17:56;;;;;;;;;;;;;;;;;;5052666;28;20004;-63
2021/03/11 15:20:22;;;;;;;;;;;;;;;;;;5052329;28;19905;-63
2021/03/11 15:22:48;;;;;;;;;;;;;;;;;;5052588;28;19970;-62
2021/03/11 15:25:14;;;;;;;;;;;;;;;;;;5050598;28;20007;-63
2021/03/11 15:27:40;;;;;;;;;;;;;;;;;;5051647;28;19991;-62
2021/03/11 15:30:06;;;;;;;;;;;;;;;;;;5052554;28;19999;-63
2021/03/11 15:32:32;;;;;;;;;;;;;;;;;;5052546;28;20396;-62
2021/03/11 15:34:58;;;;;;;;;;;;;;;;;;5052151;28;19911;-60
2021/03/11 15:37:24;;;;;;;;;;;;;;;;;;5052096;28;20390;-63
2021/03/11 15:39:50;;;;;;;;;;;;;;;;;;5051911;28;20428;-63
2021/03/11 15:42:16;;;;;;;;;;;;;;;;;;5051607;28;20047;-62
2021/03/11 15:44:42;;;;;;;;;;;;;;;;;;5052309;28;19916;-63
2021/03/11 15:47:09;;;;;;;;;;;;;;;;;;5052349;28;19904;-63
2021/03/11 15:49:35;;;;;;;;;;;;;;;;;;5052097;28;19905;-63
2021/03/11 15:52:01;;;;;;;;;;;;;;;;;;5050724;28;19962;-63
2021/03/11 15:54:27;;;;;;;;;;;;;;;;;;5052148;28;19904;-62
2021/03/11 15:56:53;;;;;;;;;;;;;;;;;;5051831;28;19926;-63
2021/03/11 15:59:19;;;;;;;;;;;;;;;;;;5051683;28;19909;-63
2021/03/11 16:01:45;;;;;;;;;;;;;;;;;;5051605;28;19904;-62
2021/03/11 16:04:11;;;;;;;;;;;;;;;;;;5052124;28;20023;-62
2021/03/11 16:06:37;;;;;;;;;;;;;;;;;;5052144;28;19916;-63
2021/03/11 16:09:02;;;;;;;;;;;;;;;;;;5051759;28;20274;-62
2021/03/11 16:11:28;;;;;;;;;;;;;;;;;;5051471;28;19908;-63
2021/03/11 16:13:54;;;;;;;;;;;;;;;;;;5051132;28;19915;-63
2021/03/11 16:16:20;;;;;;;;;;;;;;;;;;5051544;28;19912;-62
2021/03/11 16:18:46;;;;;;;;;;;;;;;;;;5051813;28;20007;-62
2021/03/11 16:21:12;;;;;;;;;;;;;;;;;;5051375;28;19905;-63
2021/03/11 16:23:41;;;;;;;;;;;;;;;;;;5051530;28;19970;-62
2021/03/11 16:26:07;;;;;;;;;;;;;;;;;;5051587;28;19909;-63
2021/03/11 16:28:33;;;;;;;;;;;;;;;;;;5052059;28;19905;-63
2021/03/11 16:30:59;;;;;;;;;;;;;;;;;;5055567;28;19911;-63
2021/03/11 16:33:25;;;;;;;;;;;;;;;;;;5055713;28;20284;-63
2021/03/11 16:35:51;;;;;;;;;;;;;;;;;;5054374;28;19905;-63